Time;durP1;ratioP1;P1;durP2;ratioP2;P2;SDS_P1;SDS_P2;PMS_P1;PMS_P2;Temp;Humidity;BMP_temperature;BMP_pressure;BME280_temperature;BME280_humidity;BME280_pressure;Samples;Min_cycle;Max_cycle;Signal;HPM_P1;HPM_P2
2021/06/14 00:00:14;;;;;;;3.37;3.07;;;;;24.60;101330.00;;;;2079277;28;20358;-58
2021/06/14 00:01:14;;;;;;;3.90;3.60;;;;;24.60;101329.00;;;;2077902;28;20213;-57
2021/06/14 00:02:15;;;;;;;3.10;2.90;;;;;24.60;101333.00;;;;2078923;28;20690;-58
2021/06/14 00:03:15;;;;;;;3.53;3.23;;;;;24.50;101333.00;;;;2079012;28;20245;-57
2021/06/14 00:04:15;;;;;;;3.50;3.20;;;;;24.60;101333.00;;;;2079057;28;20709;-58
2021/06/14 00:05:29;;;;;;;2.80;2.60;;;;;24.50;101334.00;;;;2079108;28;20221;-58
2021/06/14 00:06:30;;;;;;;3.30;3.00;;;;;24.60;101334.00;;;;2078329;28;20216;-58
2021/06/14 00:07:30;;;;;;;3.47;3.17;;;;;24.50;101324.00;;;;2078484;28;20233;-58
2021/06/14 00:08:31;;;;;;;2.83;2.63;;;;;24.50;101326.00;;;;2077335;28;20584;-58
2021/06/14 00:09:31;;;;;;;3.27;2.97;;;;;24.50;101324.00;;;;2077908;28;20221;-58
2021/06/14 00:10:32;;;;;;;3.90;3.60;;;;;24.50;101326.00;;;;2078683;28;20800;-57
2021/06/14 00:11:32;;;;;;;3.17;2.97;;;;;24.50;101326.00;;;;2076197;28;20240;-57
2021/06/14 00:12:32;;;;;;;3.80;3.43;;;;;24.50;101329.00;;;;2078512;28;20217;-58
2021/06/14 00:13:33;;;;;;;2.80;2.60;;;;;24.50;101321.00;;;;2078274;28;20209;-58
2021/06/14 00:14:33;;;;;;;2.97;2.77;;;;;24.50;101326.00;;;;2078639;28;20275;-57
2021/06/14 00:15:33;;;;;;;3.17;2.87;;;;;24.50;101320.00;;;;2078344;28;20616;-58
2021/06/14 00:16:35;;;;;;;2.70;2.50;;;;;24.50;101319.00;;;;2078417;28;20218;-58
2021/06/14 00:17:35;;;;;;;2.88;2.67;;;;;24.50;101330.00;;;;2078009;28;20225;-58
2021/06/14 00:18:36;;;;;;;3.10;2.87;;;;;24.50;101319.00;;;;2077916;28;20228;-58
2021/06/14 00:19:36;;;;;;;2.87;2.67;;;;;24.50;101326.00;;;;2075384;28;20222;-58
2021/06/14 00:20:37;;;;;;;3.00;2.80;;;;;24.50;101321.00;;;;2073745;28;20305;-58
2021/06/14 00:21:37;;;;;;;3.03;2.83;;;;;24.50;101323.00;;;;2070105;28;20260;-57
2021/06/14 00:22:39;;;;;;;3.10;2.90;;;;;24.50;101327.00;;;;2070434;28;20213;-58
2021/06/14 00:23:39;;;;;;;3.25;3.05;;;;;24.50;101317.00;;;;2070145;28;20811;-58
2021/06/14 00:24:40;;;;;;;3.33;3.13;;;;;24.50;101314.00;;;;2074069;28;20271;-57
2021/06/14 00:25:40;;;;;;;3.40;3.10;;;;;24.50;101313.00;;;;2078236;28;20287;-58
2021/06/14 00:26:40;;;;;;;3.40;3.10;;;;;24.50;101320.00;;;;2078472;28;20213;-57
2021/06/14 00:27:41;;;;;;;2.83;2.63;;;;;24.50;101313.00;;;;2078756;28;20213;-58
2021/06/14 00:28:41;;;;;;;3.13;2.90;;;;;24.50;101309.00;;;;2078858;28;20221;-58
2021/06/14 00:29:42;;;;;;;3.87;3.00;;;;;24.50;101314.00;;;;2078888;28;20281;-58
2021/06/14 00:30:43;;;;;;;3.10;2.90;;;;;24.50;101322.00;;;;2078854;28;20757;-58
2021/06/14 00:31:44;;;;;;;3.88;3.25;;;;;24.50;101314.00;;;;2077702;28;20713;-58
2021/06/14 00:32:44;;;;;;;4.17;3.30;;;;;24.50;101310.00;;;;2078789;28;20293;-57
2021/06/14 00:33:45;;;;;;;3.13;2.83;;;;;24.50;101309.00;;;;2078611;28;20221;-57
2021/06/14 00:34:45;;;;;;;2.90;2.70;;;;;24.50;101306.00;;;;2078824;28;20704;-58
2021/06/14 00:35:47;;;;;;;3.00;2.80;;;;;24.50;101307.00;;;;2078881;28;20217;-57
2021/06/14 00:36:47;;;;;;;3.58;3.10;;;;;24.50;101312.00;;;;2078997;28;20925;-57
2021/06/14 00:37:47;;;;;;;2.83;2.63;;;;;24.50;101310.00;;;;2078671;28;20221;-57
2021/06/14 00:38:48;;;;;;;3.43;3.13;;;;;24.50;101310.00;;;;2078956;28;20220;-58
2021/06/14 00:39:48;;;;;;;3.13;2.93;;;;;24.50;101307.00;;;;2078702;28;20209;-58
2021/06/14 00:40:48;;;;;;;3.03;2.73;;;;;24.50;101310.00;;;;2076926;28;20213;-58
2021/06/14 00:41:49;;;;;;;3.03;2.83;;;;;24.50;101306.00;;;;2069758;28;20304;-58
2021/06/14 00:42:49;;;;;;;2.90;2.70;;;;;24.50;101305.00;;;;2070480;28;20249;-58
2021/06/14 00:43:49;;;;;;;3.43;3.17;;;;;24.50;101299.00;;;;2070662;28;20213;-58
2021/06/14 00:44:50;;;;;;;3.50;3.20;;;;;24.50;101300.00;;;;2070622;28;20210;-58
2021/06/14 00:45:51;;;;;;;3.23;3.00;;;;;24.50;101303.00;;;;2075841;28;20237;-58
2021/06/14 00:46:52;;;;;;;3.30;2.60;;;;;24.50;101292.00;;;;2079099;28;20205;-57
2021/06/14 00:47:52;;;;;;;2.70;2.50;;;;;24.50;101296.00;;;;2078103;28;21044;-58
2021/06/14 00:48:52;;;;;;;3.20;3.00;;;;;24.50;101296.00;;;;2078633;28;20475;-58
2021/06/14 00:49:53;;;;;;;3.37;3.07;;;;;24.50;101300.00;;;;2077088;28;20210;-57
2021/06/14 00:51:00;;;;;;;2.97;2.77;;;;;24.50;101304.00;;;;2074160;28;20233;-58
2021/06/14 00:52:00;;;;;;;3.15;2.95;;;;;24.50;101295.00;;;;2081326;28;20221;-57
2021/06/14 00:53:01;;;;;;;3.50;3.20;;;;;24.50;101288.00;;;;2079900;28;20617;-57
2021/06/14 00:54:01;;;;;;;3.27;2.97;;;;;24.50;101283.00;;;;2066010;28;20272;-57
2021/06/14 00:55:03;;;;;;;4.07;3.73;;;;;24.50;101283.00;;;;2070647;28;20217;-58
2021/06/14 00:56:09;;;;;;;2.78;2.58;;;;;24.50;101277.00;;;;2070516;28;20750;-58
2021/06/14 00:57:09;;;;;;;3.30;3.00;;;;;24.50;101280.00;;;;2070477;28;20250;-58
2021/06/14 00:58:10;;;;;;;3.27;3.00;;;;;24.50;101277.00;;;;2070057;28;20269;-58
2021/06/14 00:59:11;;;;;;;3.10;2.90;;;;;24.50;101276.00;;;;2069566;28;20265;-58
2021/06/14 01:00:11;;;;;;;2.93;2.73;;;;;24.50;101281.00;;;;2069907;28;20308;-57
2021/06/14 01:01:12;;;;;;;3.80;3.50;;;;;24.50;101278.00;;;;2068914;28;20241;-58
2021/06/14 01:02:12;;;;;;;3.00;2.80;;;;;24.50;101280.00;;;;2070683;28;20466;-58
2021/06/14 01:03:12;;;;;;;3.90;3.50;;;;;24.50;101281.00;;;;2069792;28;20264;-58
2021/06/14 01:04:13;;;;;;;3.70;3.30;;;;;24.50;101280.00;;;;2069082;28;20272;-57
2021/06/14 01:05:13;;;;;;;3.30;3.00;;;;;24.50;101274.00;;;;2070272;28;20304;-57
2021/06/14 01:06:15;;;;;;;3.07;2.87;;;;;24.50;101278.00;;;;2070424;28;20576;-57
2021/06/14 01:07:15;;;;;;;3.53;3.22;;;;;24.50;101269.00;;;;2070581;28;20218;-57
2021/06/14 01:08:15;;;;;;;3.73;3.43;;;;;24.50;101280.00;;;;2071957;28;20217;-57
2021/06/14 01:09:16;;;;;;;3.23;3.03;;;;;24.50;101275.00;;;;2071347;28;20214;-57
2021/06/14 01:10:16;;;;;;;3.00;2.80;;;;;24.50;101272.00;;;;2071135;28;20249;-58
2021/06/14 01:11:35;;;;;;;3.47;3.17;;;;;24.50;101269.00;;;;2070089;28;20211;-58
2021/06/14 01:12:38;;;;;;;3.85;3.45;;;;;24.50;101277.00;;;;2080068;28;20219;-58
2021/06/14 01:13:41;;;;;;;2.45;2.28;;;;;24.50;101281.00;;;;2078543;28;20221;-61
2021/06/14 01:14:45;;;;;;;3.67;3.40;;;;;24.50;101272.00;;;;2079074;28;20213;-58
2021/06/14 01:16:24;;;;;;;3.47;3.17;;;;;24.50;101275.00;;;;2079429;28;20718;-58
2021/06/14 01:17:25;;;;;;;2.67;2.45;;;;;24.50;101274.00;;;;2079888;28;20202;-58
2021/06/14 01:18:33;;;;;;;3.17;2.87;;;;;24.50;101275.00;;;;2079610;28;20216;-57
2021/06/14 01:20:01;;;;;;;3.17;2.92;;;;;24.50;101269.00;;;;2079446;28;20305;-58
2021/06/14 01:21:04;;;;;;;3.40;3.10;;;;;24.40;101270.00;;;;2077775;28;20263;-58
2021/06/14 01:22:14;;;;;;;3.10;2.80;;;;;24.50;101271.00;;;;2073521;28;20267;-58
2021/06/14 01:23:48;;;;;;;2.70;2.50;;;;;24.50;101260.00;;;;2071377;28;20215;-57
2021/06/14 01:25:08;;;;;;;2.97;2.72;;;;;24.50;101263.00;;;;2071849;28;20214;-58
2021/06/14 01:26:10;;;;;;;3.60;3.05;;;;;24.50;101261.00;;;;2071669;28;20206;-58
2021/06/14 01:27:10;;;;;;;3.08;2.88;;;;;24.50;101260.00;;;;2071626;28;20226;-58
2021/06/14 01:28:11;;;;;;;3.13;2.87;;;;;24.40;101258.00;;;;2070213;28;20216;-58
2021/06/14 01:29:11;;;;;;;3.07;2.87;;;;;24.50;101258.00;;;;2068635;28;20214;-58
2021/06/14 01:30:14;;;;;;;3.03;2.83;;;;;24.40;101254.00;;;;2070424;28;21156;-61
2021/06/14 01:31:14;;;;;;;2.97;2.78;;;;;24.40;101258.00;;;;2073687;28;20209;-58
2021/06/14 01:32:14;;;;;;;3.30;3.00;;;;;24.40;101261.00;;;;2079556;28;20300;-58
2021/06/14 01:33:16;;;;;;;2.97;2.77;;;;;24.40;101254.00;;;;2079152;28;20212;-58
2021/06/14 01:34:17;;;;;;;3.40;3.10;;;;;24.40;101251.00;;;;2079432;28;20732;-58
2021/06/14 01:35:20;;;;;;;2.85;2.65;;;;;24.50;101259.00;;;;2071385;28;20214;-57
2021/06/14 01:36:41;;;;;;;3.20;3.00;;;;;24.40;101256.00;;;;2079628;28;21352;-58
2021/06/14 01:37:48;;;;;;;2.60;2.40;;;;;24.40;101236.00;;;;2077137;28;20214;-58
2021/06/14 01:38:48;;;;;;;3.38;3.08;;;;;24.40;101248.00;;;;2081315;28;20310;-59
2021/06/14 01:39:49;;;;;;;2.80;2.60;;;;;24.40;101250.00;;;;2078956;28;20232;-58
2021/06/14 01:40:51;;;;;;;2.90;2.70;;;;;24.40;101254.00;;;;2070972;28;20733;-58
2021/06/14 01:41:52;;;;;;;3.20;3.00;;;;;24.40;101248.00;;;;2070186;28;20213;-57
2021/06/14 01:42:54;;;;;;;2.70;2.50;;;;;24.50;101250.00;;;;2063270;28;20700;-57
2021/06/14 01:43:55;;;;;;;3.40;3.10;;;;;24.30;101239.00;;;;2070562;28;20902;-58
2021/06/14 01:44:55;;;;;;;2.90;2.70;;;;;24.40;101247.00;;;;2070771;28;20213;-58
2021/06/14 01:45:58;;;;;;;2.90;2.70;;;;;24.40;101237.00;;;;2070721;28;20214;-58
2021/06/14 01:46:59;;;;;;;3.38;3.08;;;;;24.40;101236.00;;;;2070299;28;20575;-58
2021/06/14 01:47:59;;;;;;;3.33;2.87;;;;;24.40;101246.00;;;;2070744;28;20217;-58
2021/06/14 01:49:00;;;;;;;3.60;3.30;;;;;24.40;101238.00;;;;2070647;28;20222;-58
2021/06/14 01:50:00;;;;;;;3.13;2.93;;;;;24.40;101230.00;;;;2074498;28;20328;-58
2021/06/14 01:51:01;;;;;;;3.00;2.80;;;;;24.40;101227.00;;;;2061063;28;20293;-58
2021/06/14 01:52:01;;;;;;;3.00;2.80;;;;;24.40;101242.00;;;;2063845;28;20215;-58
2021/06/14 01:53:02;;;;;;;3.00;2.80;;;;;24.40;101239.00;;;;2064673;28;20224;-58
2021/06/14 01:54:03;;;;;;;3.00;2.80;;;;;24.40;101232.00;;;;2070276;28;20222;-57
2021/06/14 01:55:05;;;;;;;3.40;3.10;;;;;24.40;101224.00;;;;2085827;28;20213;-57
2021/06/14 01:56:06;;;;;;;3.50;3.20;;;;;24.40;101221.00;;;;2078521;28;20221;-58
2021/06/14 01:57:07;;;;;;;3.10;2.80;;;;;24.40;101222.00;;;;2078712;28;20845;-57
2021/06/14 01:58:07;;;;;;;2.90;2.70;;;;;24.40;101220.00;;;;2095599;28;20434;-58
2021/06/14 01:59:10;;;;;;;3.17;2.90;;;;;24.40;101223.00;;;;2086951;28;20217;-58
2021/06/14 02:00:10;;;;;;;2.78;2.58;;;;;24.40;101222.00;;;;2079369;28;20226;-58
2021/06/14 02:01:11;;;;;;;3.40;2.90;;;;;24.40;101214.00;;;;2078471;28;20287;-58
2021/06/14 02:02:11;;;;;;;3.20;3.00;;;;;24.40;101219.00;;;;2067439;28;20237;-58
2021/06/14 02:03:11;;;;;;;3.10;2.90;;;;;24.40;101221.00;;;;2071209;28;20214;-58
2021/06/14 02:04:12;;;;;;;3.00;2.80;;;;;24.40;101224.00;;;;2070841;28;20383;-58
2021/06/14 02:05:12;;;;;;;3.07;2.87;;;;;24.40;101219.00;;;;2078195;28;20221;-58
2021/06/14 02:06:13;;;;;;;3.07;2.87;;;;;24.40;101218.00;;;;2070834;28;20265;-58
2021/06/14 02:07:13;;;;;;;2.50;2.30;;;;;24.40;101219.00;;;;2063171;28;20777;-57
2021/06/14 02:08:15;;;;;;;2.83;2.63;;;;;24.40;101212.00;;;;2079331;28;20590;-58
2021/06/14 02:09:17;;;;;;;2.60;2.40;;;;;24.40;101216.00;;;;2079122;28;20213;-57
2021/06/14 02:10:18;;;;;;;2.80;2.60;;;;;24.40;101216.00;;;;2071322;28;20248;-58
2021/06/14 02:11:19;;;;;;;2.70;2.50;;;;;24.40;101216.00;;;;2069710;28;20684;-58
2021/06/14 02:12:19;;;;;;;2.80;2.60;;;;;24.40;101206.00;;;;2071262;28;20457;-59
2021/06/14 02:13:19;;;;;;;2.80;2.60;;;;;24.40;101215.00;;;;2071027;28;20222;-58
2021/06/14 02:14:22;;;;;;;3.10;2.90;;;;;24.40;101212.00;;;;2071062;28;20233;-58
2021/06/14 02:15:23;;;;;;;2.70;2.50;;;;;24.40;101211.00;;;;2069901;28;20300;-58
2021/06/14 02:16:23;;;;;;;2.80;2.60;;;;;24.40;101211.00;;;;2071105;28;20301;-57
2021/06/14 02:17:25;;;;;;;3.40;2.97;;;;;24.40;101208.00;;;;2071255;28;20210;-57
2021/06/14 02:18:25;;;;;;;3.17;2.97;;;;;24.40;101206.00;;;;2070769;28;20222;-57
2021/06/14 02:19:25;;;;;;;2.93;2.73;;;;;24.40;101204.00;;;;2063590;28;20219;-58
2021/06/14 02:20:26;;;;;;;2.70;2.50;;;;;24.40;101212.00;;;;2085786;28;20298;-57
2021/06/14 02:21:26;;;;;;;2.77;2.57;;;;;24.40;101210.00;;;;2089478;28;20258;-58
2021/06/14 02:22:27;;;;;;;3.20;2.90;;;;;24.40;101207.00;;;;2073817;28;20206;-57
2021/06/14 02:23:27;;;;;;;3.20;2.90;;;;;24.40;101215.00;;;;2071740;28;20230;-57
2021/06/14 02:24:27;;;;;;;3.50;3.20;;;;;24.40;101211.00;;;;2070957;28;20341;-58
2021/06/14 02:25:28;;;;;;;2.57;2.37;;;;;24.40;101202.00;;;;2070959;28;20218;-57
2021/06/14 02:26:28;;;;;;;3.17;2.87;;;;;24.40;101211.00;;;;2071868;28;20219;-58
2021/06/14 02:27:28;;;;;;;2.70;2.50;;;;;24.40;101207.00;;;;2071872;28;20592;-58
2021/06/14 02:28:29;;;;;;;3.07;2.83;;;;;24.40;101209.00;;;;2071795;28;20214;-57
2021/06/14 02:29:29;;;;;;;2.73;2.53;;;;;24.40;101204.00;;;;2071633;28;20306;-57
2021/06/14 02:30:30;;;;;;;3.27;2.90;;;;;24.40;101203.00;;;;2071740;28;20326;-57
2021/06/14 02:31:31;;;;;;;2.63;2.43;;;;;24.40;101204.00;;;;2070734;28;20790;-57
2021/06/14 02:32:31;;;;;;;2.70;2.50;;;;;24.40;101212.00;;;;2071640;28;20699;-57
2021/06/14 02:33:32;;;;;;;3.30;3.10;;;;;24.30;101195.00;;;;2070953;28;20251;-58
2021/06/14 02:34:33;;;;;;;2.70;2.50;;;;;24.40;101198.00;;;;2070662;28;20321;-58
2021/06/14 02:35:34;;;;;;;3.00;2.80;;;;;24.40;101190.00;;;;2070867;28;20222;-57
2021/06/14 02:36:34;;;;;;;2.83;2.63;;;;;24.40;101199.00;;;;2062814;28;20211;-58
2021/06/14 02:37:39;;;;;;;2.77;2.57;;;;;24.40;101199.00;;;;2071045;28;20211;-58
2021/06/14 02:38:40;;;;;;;3.17;2.95;;;;;24.40;101194.00;;;;2079541;28;20718;-58
2021/06/14 02:39:40;;;;;;;2.60;2.40;;;;;24.30;101203.00;;;;2070827;28;20210;-58
2021/06/14 02:40:41;;;;;;;2.97;2.67;;;;;24.40;101203.00;;;;2062522;28;20230;-58
2021/06/14 02:41:42;;;;;;;2.83;2.63;;;;;24.40;101192.00;;;;2078447;28;20221;-58
2021/06/14 02:42:44;;;;;;;3.70;3.40;;;;;24.40;101207.00;;;;2078883;28;20222;-58
2021/06/14 02:43:44;;;;;;;2.90;2.70;;;;;24.40;101195.00;;;;2071700;28;20687;-58
2021/06/14 02:44:46;;;;;;;2.90;2.70;;;;;24.40;101202.00;;;;2070905;28;20214;-57
2021/06/14 02:45:47;;;;;;;2.85;2.65;;;;;24.40;101203.00;;;;2070634;28;20717;-57
2021/06/14 02:46:47;;;;;;;3.65;3.15;;;;;24.40;101201.00;;;;2070896;28;20222;-58
2021/06/14 02:47:48;;;;;;;3.37;3.07;;;;;24.40;101194.00;;;;2070741;28;20214;-58
2021/06/14 02:48:49;;;;;;;3.07;2.77;;;;;24.30;101196.00;;;;2070842;28;20214;-58
2021/06/14 02:49:49;;;;;;;2.70;2.50;;;;;24.30;101197.00;;;;2072082;28;20706;-58
2021/06/14 02:50:50;;;;;;;3.03;2.73;;;;;24.30;101199.00;;;;2073016;28;20210;-58
2021/06/14 02:51:51;;;;;;;2.90;2.70;;;;;24.30;101198.00;;;;2078034;28;20773;-58
2021/06/14 02:52:52;;;;;;;2.90;2.70;;;;;24.40;101201.00;;;;2072306;28;20241;-58
2021/06/14 02:54:03;;;;;;;2.80;2.60;;;;;24.40;101203.00;;;;2070875;28;20648;-58
2021/06/14 02:55:06;;;;;;;2.70;2.50;;;;;24.30;101204.00;;;;2070604;28;20235;-57
2021/06/14 02:56:15;;;;;;;2.60;2.42;;;;;24.40;101201.00;;;;2071350;28;20348;-57
2021/06/14 02:57:15;;;;;;;2.60;2.40;;;;;24.30;101200.00;;;;2071020;28;20210;-57
2021/06/14 02:58:18;;;;;;;3.40;3.10;;;;;24.30;101204.00;;;;2071017;28;20649;-57
2021/06/14 02:59:18;;;;;;;3.05;2.85;;;;;24.30;101197.00;;;;2070294;28;20210;-58
2021/06/14 03:00:20;;;;;;;2.80;2.60;;;;;24.30;101197.00;;;;2069883;28;20786;-58
2021/06/14 03:01:20;;;;;;;2.72;2.53;;;;;24.30;101198.00;;;;2070142;28;20210;-57
2021/06/14 03:02:22;;;;;;;3.20;3.00;;;;;24.30;101197.00;;;;2070805;28;20703;-57
2021/06/14 03:03:22;;;;;;;2.55;2.35;;;;;24.30;101195.00;;;;2070679;28;20236;-58
2021/06/14 03:04:22;;;;;;;3.10;2.80;;;;;24.30;101190.00;;;;2071109;28;20685;-58
2021/06/14 03:05:23;;;;;;;2.90;2.60;;;;;24.30;101191.00;;;;2077539;28;20383;-57
2021/06/14 03:06:23;;;;;;;3.30;3.00;;;;;24.30;101198.00;;;;2079096;28;20213;-57
2021/06/14 03:07:24;;;;;;;3.13;2.90;;;;;24.30;101189.00;;;;2078822;28;20228;-58
2021/06/14 03:08:25;;;;;;;3.20;2.87;;;;;24.30;101190.00;;;;2070519;28;20265;-58
2021/06/14 03:09:25;;;;;;;3.03;2.80;;;;;24.30;101185.00;;;;2078747;28;20444;-57
2021/06/14 03:10:26;;;;;;;3.03;2.83;;;;;24.30;101182.00;;;;2076832;28;20209;-58
2021/06/14 03:11:28;;;;;;;2.80;2.60;;;;;24.30;101187.00;;;;2078345;28;20319;-58
2021/06/14 03:12:28;;;;;;;2.85;2.65;;;;;24.30;101189.00;;;;2086671;28;20550;-58
2021/06/14 03:13:29;;;;;;;2.93;2.63;;;;;24.30;101189.00;;;;2079225;28;20213;-60
2021/06/14 03:14:29;;;;;;;2.97;2.77;;;;;24.30;101180.00;;;;2079247;28;20248;-58
2021/06/14 03:15:30;;;;;;;2.80;2.60;;;;;24.30;101184.00;;;;2079384;28;20217;-58
2021/06/14 03:16:31;;;;;;;3.00;2.80;;;;;24.30;101178.00;;;;2078746;28;20214;-58
2021/06/14 03:17:32;;;;;;;3.07;2.83;;;;;24.30;101178.00;;;;2078809;28;20217;-58
2021/06/14 03:18:32;;;;;;;2.90;2.70;;;;;24.30;101180.00;;;;2070624;28;20496;-58
2021/06/14 03:19:33;;;;;;;2.73;2.53;;;;;24.30;101172.00;;;;2076639;28;21136;-58
2021/06/14 03:20:33;;;;;;;2.90;2.70;;;;;24.30;101166.00;;;;2073609;28;20226;-57
2021/06/14 03:21:34;;;;;;;3.17;2.87;;;;;24.30;101180.00;;;;2073413;28;20221;-58
2021/06/14 03:22:34;;;;;;;2.87;2.67;;;;;24.30;101177.00;;;;2081849;28;20636;-58
2021/06/14 03:23:34;;;;;;;2.70;2.50;;;;;24.30;101171.00;;;;2071317;28;20211;-58
2021/06/14 03:24:36;;;;;;;2.60;2.40;;;;;24.30;101180.00;;;;2071116;28;20237;-57
2021/06/14 03:25:36;;;;;;;2.65;2.35;;;;;24.30;101177.00;;;;2071042;28;20210;-58
2021/06/14 03:26:38;;;;;;;3.40;3.10;;;;;24.30;101175.00;;;;2071441;28;20218;-57
2021/06/14 03:27:39;;;;;;;3.55;2.40;;;;;24.30;101170.00;;;;2071270;28;20465;-57
2021/06/14 03:28:43;;;;;;;2.83;2.63;;;;;24.30;101167.00;;;;2070366;28;20612;-58
2021/06/14 03:29:43;;;;;;;2.83;2.55;;;;;24.30;101166.00;;;;2070178;28;20586;-58
2021/06/14 03:30:44;;;;;;;2.43;2.30;;;;;24.30;101171.00;;;;2067262;28;20214;-58
2021/06/14 03:31:45;;;;;;;2.43;2.23;;;;;24.30;101169.00;;;;2070060;28;20644;-58
2021/06/14 03:32:46;;;;;;;3.15;2.95;;;;;24.30;101169.00;;;;2070484;28;20210;-58
2021/06/14 03:33:48;;;;;;;2.57;2.37;;;;;24.30;101166.00;;;;2086856;28;20263;-58
2021/06/14 03:34:48;;;;;;;2.65;2.45;;;;;24.30;101165.00;;;;2077906;28;20926;-57
2021/06/14 03:35:48;;;;;;;2.97;2.77;;;;;24.20;101166.00;;;;2070594;28;20229;-58
2021/06/14 03:36:49;;;;;;;2.80;2.60;;;;;24.30;101169.00;;;;2070538;28;20750;-58
2021/06/14 03:37:49;;;;;;;2.60;2.40;;;;;24.30;101177.00;;;;2070545;28;20271;-58
2021/06/14 03:38:53;;;;;;;2.77;2.57;;;;;24.30;101164.00;;;;2070357;28;20658;-58
2021/06/14 03:39:53;;;;;;;2.75;2.55;;;;;24.30;101164.00;;;;2069329;28;20702;-57
2021/06/14 03:40:53;;;;;;;2.67;2.47;;;;;24.30;101169.00;;;;2071315;28;20221;-58
2021/06/14 03:41:54;;;;;;;2.80;2.60;;;;;24.30;101168.00;;;;2069930;28;20291;-57
2021/06/14 03:43:01;;;;;;;2.97;2.77;;;;;24.30;101164.00;;;;2070563;28;20218;-57
2021/06/14 03:44:02;;;;;;;2.80;2.60;;;;;24.30;101166.00;;;;2070758;28;20682;-58
2021/06/14 03:45:03;;;;;;;2.60;2.40;;;;;24.30;101168.00;;;;2078460;28;20218;-58
2021/06/14 03:46:04;;;;;;;2.95;2.75;;;;;24.30;101164.00;;;;2078261;28;20218;-59
2021/06/14 03:47:04;;;;;;;2.83;2.63;;;;;24.30;101166.00;;;;2071305;28;20711;-59
2021/06/14 03:48:05;;;;;;;3.07;2.77;;;;;24.30;101164.00;;;;2071245;28;20317;-59
2021/06/14 03:49:05;;;;;;;2.70;2.50;;;;;24.30;101164.00;;;;2071055;28;20218;-58
2021/06/14 03:50:07;;;;;;;3.30;3.00;;;;;24.30;101163.00;;;;2077533;28;20209;-57
2021/06/14 03:51:07;;;;;;;3.00;2.72;;;;;24.30;101163.00;;;;2072942;28;20210;-58
2021/06/14 03:52:08;;;;;;;2.80;2.60;;;;;24.30;101166.00;;;;2072976;28;20206;-58
2021/06/14 03:53:08;;;;;;;2.97;2.77;;;;;24.30;101160.00;;;;2070413;28;20562;-57
2021/06/14 03:54:08;;;;;;;2.90;2.70;;;;;24.30;101161.00;;;;2070885;28;20210;-58
2021/06/14 03:55:09;;;;;;;2.60;2.40;;;;;24.30;101161.00;;;;2073095;28;20289;-57
2021/06/14 03:56:10;;;;;;;3.10;2.90;;;;;24.30;101165.00;;;;2079269;28;20240;-58
2021/06/14 03:57:10;;;;;;;2.80;2.60;;;;;24.30;101167.00;;;;2079324;28;20492;-56
2021/06/14 03:58:10;;;;;;;2.83;2.63;;;;;24.30;101164.00;;;;2078435;28;20682;-58
2021/06/14 03:59:11;;;;;;;3.30;3.00;;;;;24.30;101155.00;;;;2078839;28;20292;-58
2021/06/14 04:00:13;;;;;;;2.63;2.43;;;;;24.30;101161.00;;;;2079267;28;20221;-58
2021/06/14 04:01:13;;;;;;;4.10;2.50;;;;;24.30;101164.00;;;;2078396;28;20216;-58
2021/06/14 04:02:13;;;;;;;2.00;1.90;;;;;24.30;101163.00;;;;2079301;28;20221;-58
2021/06/14 04:03:14;;;;;;;2.70;2.50;;;;;24.30;101159.00;;;;2079198;28;20288;-58
2021/06/14 04:05:27;;;;;;;2.60;2.40;;;;;24.30;101160.00;;;;2079107;28;20206;-58
2021/06/14 04:06:27;;;;;;;2.60;2.40;;;;;24.30;101154.00;;;;2079247;28;20218;-58
2021/06/14 04:07:28;;;;;;;2.60;2.40;;;;;24.30;101155.00;;;;2079233;28;20248;-57
2021/06/14 04:08:28;;;;;;;2.83;2.63;;;;;24.30;101153.00;;;;2078505;28;20300;-57
2021/06/14 04:09:28;;;;;;;2.83;2.63;;;;;24.30;101159.00;;;;2078575;28;20709;-58
2021/06/14 04:10:29;;;;;;;2.60;2.40;;;;;24.30;101147.00;;;;2079150;28;20213;-58
2021/06/14 04:11:29;;;;;;;2.67;2.47;;;;;24.30;101152.00;;;;2078502;28;20220;-58
2021/06/14 04:12:30;;;;;;;2.77;2.57;;;;;24.30;101151.00;;;;2079160;28;20260;-58
2021/06/14 04:13:30;;;;;;;2.50;2.30;;;;;24.30;101152.00;;;;2079121;28;20213;-57
2021/06/14 04:14:30;;;;;;;2.90;2.70;;;;;24.30;101152.00;;;;2083064;28;20457;-57
2021/06/14 04:15:31;;;;;;;2.60;2.40;;;;;24.30;101148.00;;;;2094778;28;20242;-58
2021/06/14 04:16:31;;;;;;;2.97;2.77;;;;;24.30;101141.00;;;;2080626;28;20236;-58
2021/06/14 04:17:32;;;;;;;3.10;2.90;;;;;24.30;101140.00;;;;2078942;28;20263;-58
2021/06/14 04:18:32;;;;;;;2.43;2.23;;;;;24.30;101151.00;;;;2079093;28;20209;-58
2021/06/14 04:19:33;;;;;;;2.83;2.63;;;;;24.30;101140.00;;;;2076305;28;20217;-57
2021/06/14 04:20:34;;;;;;;3.13;2.90;;;;;24.30;101147.00;;;;2074657;28;20233;-58
2021/06/14 04:21:34;;;;;;;2.67;2.47;;;;;24.30;101144.00;;;;2070715;28;20449;-58
2021/06/14 04:22:34;;;;;;;2.53;2.33;;;;;24.30;101139.00;;;;2070914;28;20288;-58
2021/06/14 04:23:34;;;;;;;2.93;2.70;;;;;24.30;101143.00;;;;2071121;28;20225;-58
2021/06/14 04:24:35;;;;;;;2.83;2.63;;;;;24.30;101144.00;;;;2071170;28;20225;-58
2021/06/14 04:25:35;;;;;;;3.37;3.07;;;;;24.30;101142.00;;;;2070675;28;20777;-57
2021/06/14 04:26:36;;;;;;;2.53;2.33;;;;;24.30;101156.00;;;;2071034;28;20301;-58
2021/06/14 04:27:36;;;;;;;2.60;2.40;;;;;24.30;101150.00;;;;2071115;28;20214;-58
2021/06/14 04:28:37;;;;;;;2.80;2.60;;;;;24.30;101149.00;;;;2070806;28;20214;-58
2021/06/14 04:29:38;;;;;;;2.80;2.60;;;;;24.30;101151.00;;;;2070778;28;20214;-58
2021/06/14 04:30:38;;;;;;;2.63;2.43;;;;;24.30;101147.00;;;;2070877;28;21213;-58
2021/06/14 04:31:38;;;;;;;2.50;2.30;;;;;24.30;101147.00;;;;2069925;28;20465;-56
2021/06/14 04:32:39;;;;;;;2.90;2.67;;;;;24.30;101140.00;;;;2070638;28;20225;-59
2021/06/14 04:33:39;;;;;;;2.70;2.50;;;;;24.30;101136.00;;;;2069094;28;20214;-57
2021/06/14 04:34:39;;;;;;;3.07;2.77;;;;;24.30;101145.00;;;;2071955;28;20302;-58
2021/06/14 04:35:40;;;;;;;2.80;2.60;;;;;24.30;101137.00;;;;2071209;28;20218;-58
2021/06/14 04:36:40;;;;;;;2.70;2.50;;;;;24.30;101144.00;;;;2070694;28;20214;-58
2021/06/14 04:37:40;;;;;;;2.83;2.63;;;;;24.30;101142.00;;;;2070788;28;20214;-58
2021/06/14 04:38:41;;;;;;;3.10;2.90;;;;;24.30;101140.00;;;;2070874;28;20275;-58
2021/06/14 04:39:41;;;;;;;2.83;2.63;;;;;24.30;101143.00;;;;2072209;28;20206;-58
2021/06/14 04:40:41;;;;;;;2.90;2.70;;;;;24.30;101144.00;;;;2072367;28;20218;-58
2021/06/14 04:41:42;;;;;;;2.90;2.70;;;;;24.30;101140.00;;;;2072669;28;20213;-58
2021/06/14 04:42:42;;;;;;;2.83;2.63;;;;;24.30;101143.00;;;;2073452;28;20214;-58
2021/06/14 04:43:42;;;;;;;3.00;2.80;;;;;24.30;101145.00;;;;2070972;28;20582;-58
2021/06/14 04:44:43;;;;;;;3.33;2.53;;;;;24.30;101140.00;;;;2073532;28;20256;-58
2021/06/14 04:45:43;;;;;;;2.50;2.30;;;;;24.30;101141.00;;;;2072617;28;20292;-57
2021/06/14 04:46:43;;;;;;;2.60;2.40;;;;;24.30;101140.00;;;;2073102;28;20224;-58
2021/06/14 04:47:46;;;;;;;2.80;2.60;;;;;24.30;101136.00;;;;2072397;28;20229;-58
2021/06/14 04:48:46;;;;;;;2.75;2.55;;;;;24.30;101140.00;;;;2072388;28;20236;-59
2021/06/14 04:49:47;;;;;;;2.93;2.73;;;;;24.30;101137.00;;;;2072680;28;20678;-57
2021/06/14 04:50:48;;;;;;;2.87;2.67;;;;;24.30;101138.00;;;;2072630;28;20305;-58
2021/06/14 04:51:48;;;;;;;2.97;2.77;;;;;24.30;101136.00;;;;2072426;28;20312;-58
2021/06/14 04:52:48;;;;;;;3.00;2.80;;;;;24.30;101136.00;;;;2073033;28;20532;-58
2021/06/14 04:53:50;;;;;;;2.43;2.23;;;;;24.30;101137.00;;;;2073150;28;20259;-58
2021/06/14 04:54:50;;;;;;;2.90;2.70;;;;;24.30;101091.00;;;;2073081;28;20709;-58
2021/06/14 04:55:51;;;;;;;2.60;2.40;;;;;24.30;101140.00;;;;2072181;28;20210;-58
2021/06/14 04:56:51;;;;;;;2.93;2.67;;;;;24.30;101137.00;;;;2069969;28;20578;-59
2021/06/14 04:57:51;;;;;;;2.50;2.30;;;;;24.30;101131.00;;;;2073469;28;20213;-58
2021/06/14 04:58:52;;;;;;;2.60;2.40;;;;;24.30;101134.00;;;;2073462;28;20213;-58
2021/06/14 04:59:52;;;;;;;2.83;2.63;;;;;24.30;101142.00;;;;2073548;28;20213;-58
2021/06/14 05:00:52;;;;;;;2.67;2.47;;;;;24.30;101130.00;;;;2073520;28;20248;-59
2021/06/14 05:01:53;;;;;;;2.50;2.30;;;;;24.30;101138.00;;;;2072145;28;20225;-59
2021/06/14 05:02:53;;;;;;;3.10;2.80;;;;;24.30;101135.00;;;;2073370;28;20210;-58
2021/06/14 05:03:55;;;;;;;2.97;2.77;;;;;24.30;101141.00;;;;2073243;28;20210;-58
2021/06/14 05:04:56;;;;;;;3.08;2.70;;;;;24.30;101142.00;;;;2073059;28;20638;-57